Time;durP1;ratioP1;P1;durP2;ratioP2;P2;SDS_P1;SDS_P2;PMS_P1;PMS_P2;Temp;Humidity;BMP_temperature;BMP_pressure;BME280_temperature;BME280_humidity;BME280_pressure;Samples;Min_cycle;Max_cycle;Signal;HPM_P1;HPM_P2
2022/03/14 00:02:03;;;;;;;34.47;15.48;;;;;;;7.47;20.77;101618.59;5032363;28;20172;-75
2022/03/14 00:04:30;;;;;;;37.45;16.63;;;;;;;7.54;20.43;101623.34;5028197;28;20054;-74
2022/03/14 00:06:57;;;;;;;33.33;15.85;;;;;;;7.38;20.73;101614.78;5012608;28;20045;-74
2022/03/14 00:09:24;;;;;;;36.35;15.05;;;;;;;7.57;20.66;101624.91;5020840;28;20068;-74
2022/03/14 00:11:54;;;;;;;38.17;17.33;;;;;;;7.12;21.07;101630.13;5016679;28;20071;-74
2022/03/14 00:14:20;;;;;;;38.05;16.23;;;;;;;7.08;21.08;101620.63;5031503;28;20045;-74
2022/03/14 00:16:47;;;;;;;39.70;16.33;;;;;;;7.11;21.09;101628.41;5020195;28;20050;-74
2022/03/14 00:19:14;;;;;;;42.00;16.38;;;;;;;7.37;20.94;101619.28;5012323;28;20490;-74
2022/03/14 00:21:41;;;;;;;36.28;16.40;;;;;;;6.98;21.26;101615.16;5004767;28;20053;-74
2022/03/14 00:24:11;;;;;;;36.53;16.83;;;;;;;7.09;21.11;101612.53;5015266;28;20087;-74
2022/03/14 00:26:39;;;;;;;36.65;16.17;;;;;;;7.03;21.25;101607.66;5006984;28;20042;-74
2022/03/14 00:29:07;;;;;;;33.85;15.70;;;;;;;7.36;20.75;101611.38;5030112;28;20400;-74
2022/03/14 00:31:34;;;;;;;35.70;15.90;;;;;;;7.43;20.68;101612.63;5031553;28;20109;-75
2022/03/14 00:34:01;;;;;;;39.80;15.73;;;;;;;7.70;20.36;101616.78;5027123;28;20050;-75
2022/03/14 00:36:28;;;;;;;35.67;15.50;;;;;;;7.58;20.48;101615.94;5012594;28;20053;-75
2022/03/14 00:38:55;;;;;;;35.13;15.70;;;;;;;7.33;20.63;101611.66;5017033;28;20465;-74
2022/03/14 00:41:21;;;;;;;34.03;14.82;;;;;;;7.34;20.89;101614.19;5029139;28;20042;-75
2022/03/14 00:43:48;;;;;;;32.25;14.98;;;;;;;7.37;20.71;101613.09;5011613;28;20049;-75
2022/03/14 00:46:16;;;;;;;35.28;15.70;;;;;;;7.46;20.60;101615.03;5012668;28;20088;-75
2022/03/14 00:48:45;;;;;;;35.28;16.40;;;;;;;7.16;21.02;101618.25;5021597;28;20469;-75
2022/03/14 00:51:11;;;;;;;40.03;16.42;;;;;;;6.83;21.49;101619.81;5012405;28;20141;-74
2022/03/14 00:53:38;;;;;;;33.65;15.05;;;;;;;6.93;21.22;101622.63;5011078;28;20457;-74
2022/03/14 00:56:06;;;;;;;35.83;16.63;;;;;;;6.59;21.59;101621.63;5026981;28;20070;-74
2022/03/14 00:58:34;;;;;;;36.95;16.10;;;;;;;6.56;21.60;101613.84;5020024;28;20128;-74
2022/03/14 01:01:01;;;;;;;36.55;15.13;;;;;;;6.57;21.76;101616.41;5032033;28;20049;-74
2022/03/14 01:03:28;;;;;;;34.85;15.85;;;;;;;6.82;21.51;101607.44;5033055;28;20063;-75
2022/03/14 01:05:54;;;;;;;40.90;16.02;;;;;;;6.61;21.77;101604.53;5023591;28;20119;-75
2022/03/14 01:08:21;;;;;;;35.70;16.33;;;;;;;6.80;21.89;101597.84;5015787;28;20069;-74
2022/03/14 01:10:48;;;;;;;36.67;15.23;;;;;;;6.93;21.41;101612.81;5015633;28;20073;-75
2022/03/14 01:13:14;;;;;;;34.28;15.25;;;;;;;6.74;21.72;101603.63;5030077;28;20486;-75
2022/03/14 01:15:41;;;;;;;35.55;16.35;;;;;;;6.46;22.09;101600.34;5024699;28;20076;-75
2022/03/14 01:18:07;;;;;;;32.65;15.63;;;;;;;6.24;22.27;101601.84;5025550;28;20074;-74
2022/03/14 01:20:34;;;;;;;35.67;15.88;;;;;;;6.48;22.17;101606.41;5014627;28;20099;-75
2022/03/14 01:23:00;;;;;;;33.50;16.25;;;;;;;6.63;22.13;101607.97;5027336;28;20133;-74
2022/03/14 01:25:27;;;;;;;41.70;16.33;;;;;;;5.99;22.62;101607.25;5034373;28;20064;-74
2022/03/14 01:27:55;;;;;;;36.13;16.38;;;;;;;6.23;22.32;101616.16;5033384;28;20075;-74
2022/03/14 01:30:22;;;;;;;35.67;15.73;;;;;;;6.08;22.58;101614.59;5029578;28;20073;-75
2022/03/14 01:32:49;;;;;;;37.88;16.33;;;;;;;5.84;22.90;101614.50;5013751;28;20073;-75
2022/03/14 01:35:19;;;;;;;35.95;15.80;;;;;;;5.73;23.21;101617.03;5015142;28;20042;-74
2022/03/14 01:37:49;;;;;;;36.35;15.27;;;;;;;5.81;22.94;101617.38;5014610;28;20096;-74
2022/03/14 01:40:17;;;;;;;26.00;12.63;;;;;;;5.85;23.08;101612.69;5015085;28;20433;-74
2022/03/14 01:42:44;;;;;;;33.75;15.48;;;;;;;5.91;22.97;101612.28;5014813;28;20120;-74
2022/03/14 01:45:12;;;;;;;39.95;14.82;;;;;;;6.07;22.87;101609.34;5014013;28;20478;-75
2022/03/14 01:47:41;;;;;;;35.08;14.27;;;;;;;5.47;23.61;101610.88;5019156;28;20047;-73
2022/03/14 01:50:08;;;;;;;38.33;16.35;;;;;;;5.62;23.21;101615.13;5033164;28;20073;-74
2022/03/14 01:52:35;;;;;;;37.95;15.48;;;;;;;5.31;23.58;101610.22;5013735;28;20048;-75
2022/03/14 01:55:02;;;;;;;37.55;16.10;;;;;;;5.40;23.58;101604.28;5014116;28;20049;-74
2022/03/14 01:57:32;;;;;;;35.63;16.05;;;;;;;5.63;23.25;101619.53;5013611;28;20058;-73
2022/03/14 01:59:59;;;;;;;37.35;16.05;;;;;;;5.77;23.22;101616.75;5013550;28;20057;-74
2022/03/14 02:02:26;;;;;;;40.03;14.93;;;;;;;5.58;23.47;101608.31;5013559;28;20129;-74
2022/03/14 02:04:53;;;;;;;38.03;15.85;;;;;;;5.67;23.19;101615.69;5013240;28;20049;-75
2022/03/14 02:07:23;;;;;;;39.90;16.20;;;;;;;5.99;23.03;101616.06;5015147;28;20049;-73
2022/03/14 02:09:49;;;;;;;40.88;16.00;;;;;;;5.73;23.16;101617.03;5005818;28;20050;-74
2022/03/14 02:12:16;;;;;;;31.92;14.65;;;;;;;5.47;23.46;101614.38;4995270;28;20137;-74
2022/03/14 02:14:43;;;;;;;37.80;16.33;;;;;;;5.55;23.26;101613.84;5013080;28;20125;-74
2022/03/14 02:17:12;;;;;;;35.50;15.48;;;;;;;5.53;23.54;101605.13;5006576;28;20136;-73
2022/03/14 02:19:40;;;;;;;38.60;14.73;;;;;;;5.87;23.37;101602.75;4994262;28;20133;-74
2022/03/14 02:22:14;;;;;;;35.50;15.80;;;;;;;5.70;23.21;101609.31;4993335;28;20573;-75
2022/03/14 02:24:43;;;;;;;39.03;15.50;;;;;;;5.69;23.34;101604.91;4994148;28;20062;-74
2022/03/14 02:27:11;;;;;;;38.45;16.48;;;;;;;5.48;23.34;101600.13;5011650;28;20050;-75
2022/03/14 02:29:39;;;;;;;34.58;14.45;;;;;;;5.25;23.84;101601.72;5013296;28;20131;-74
2022/03/14 02:32:07;;;;;;;34.08;15.90;;;;;;;5.64;23.02;101602.56;5012695;28;20172;-75
2022/03/14 02:34:34;;;;;;;33.42;15.25;;;;;;;5.45;23.60;101602.97;5010557;28;20045;-75
2022/03/14 02:37:02;;;;;;;37.55;15.65;;;;;;;5.89;23.04;101604.38;4996621;28;20125;-75
2022/03/14 02:39:31;;;;;;;37.05;15.63;;;;;;;5.62;23.04;101615.13;5009160;28;20046;-74
2022/03/14 02:41:59;;;;;;;38.33;16.02;;;;;;;6.27;22.41;101605.31;5002409;28;20418;-74
2022/03/14 02:44:25;;;;;;;37.75;16.95;;;;;;;6.04;22.56;101606.91;4995806;28;20513;-75
2022/03/14 02:46:52;;;;;;;35.85;15.57;;;;;;;5.90;22.61;101616.72;5000876;28;20080;-74
2022/03/14 02:49:18;;;;;;;37.78;16.00;;;;;;;5.73;22.87;101623.25;5000983;28;20057;-75
2022/03/14 02:51:46;;;;;;;39.65;15.45;;;;;;;5.70;23.06;101622.63;5012808;28;20137;-75
2022/03/14 02:54:13;;;;;;;38.15;15.48;;;;;;;5.24;23.57;101621.25;4983391;28;20046;-73
2022/03/14 02:56:40;;;;;;;35.72;14.77;;;;;;;5.47;23.42;101616.19;5009430;28;20450;-75
2022/03/14 02:59:08;;;;;;;37.00;15.30;;;;;;;5.91;23.10;101620.25;4993473;28;20454;-74
2022/03/14 03:01:35;;;;;;;36.83;15.93;;;;;;;5.72;23.03;101621.53;5002457;28;20046;-75
2022/03/14 03:04:03;;;;;;;39.47;15.98;;;;;;;5.76;23.01;101620.34;5012567;28;20069;-74
2022/03/14 03:06:32;;;;;;;38.47;15.57;;;;;;;5.61;23.32;101626.75;5013471;28;20053;-74
2022/03/14 03:09:00;;;;;;;37.20;15.25;;;;;;;5.56;23.34;101630.66;5012506;28;20129;-74
2022/03/14 03:11:26;;;;;;;38.20;15.45;;;;;;;6.07;22.86;101628.00;4993113;28;20459;-73
2022/03/14 03:13:54;;;;;;;37.38;15.10;;;;;;;5.90;23.06;101626.53;4993428;28;20084;-74
2022/03/14 03:16:22;;;;;;;41.28;16.90;;;;;;;5.80;23.15;101633.44;4992552;28;20058;-73
2022/03/14 03:18:48;;;;;;;32.58;14.95;;;;;;;6.30;22.63;101629.06;4992681;28;20502;-75
2022/03/14 03:21:17;;;;;;;35.97;15.25;;;;;;;6.45;22.33;101634.13;4992241;28;20089;-75
2022/03/14 03:23:44;;;;;;;36.28;15.77;;;;;;;6.46;22.34;101643.84;4993006;28;20292;-75
2022/03/14 03:26:11;;;;;;;36.72;15.95;;;;;;;6.66;22.34;101642.38;4997322;28;20073;-75
2022/03/14 03:28:38;;;;;;;37.30;15.52;;;;;;;6.87;22.01;101649.75;4998499;28;20065;-75
2022/03/14 03:31:06;;;;;;;34.33;14.40;;;;;;;6.88;22.01;101652.34;4996047;28;20137;-74
2022/03/14 03:33:34;;;;;;;37.55;15.63;;;;;;;6.16;22.50;101652.19;4989121;28;20478;-74
2022/03/14 03:36:00;;;;;;;37.85;15.82;;;;;;;6.15;22.46;101655.81;5006885;28;20070;-75
2022/03/14 03:38:28;;;;;;;34.00;15.13;;;;;;;6.27;22.70;101647.94;5009071;28;20046;-75
2022/03/14 03:40:54;;;;;;;38.25;15.57;;;;;;;6.09;22.71;101647.41;5024708;28;20112;-76
2022/03/14 03:43:21;;;;;;;35.38;14.52;;;;;;;5.90;22.87;101651.34;5032117;28;20987;-75
2022/03/14 03:45:47;;;;;;;38.75;14.85;;;;;;;5.77;23.60;101662.00;5030922;28;20068;-74
2022/03/14 03:48:14;;;;;;;35.58;15.00;;;;;;;6.00;22.81;101667.53;5032399;28;20053;-75
2022/03/14 03:50:41;;;;;;;39.58;16.50;;;;;;;5.38;23.73;101656.72;5022398;28;20065;-76
2022/03/14 03:53:07;;;;;;;37.60;15.82;;;;;;;5.61;23.45;101661.34;5029435;28;20135;-75
2022/03/14 03:55:34;;;;;;;39.70;15.07;;;;;;;5.28;23.97;101662.69;4992831;28;20061;-75
2022/03/14 03:58:01;;;;;;;37.65;16.02;;;;;;;5.76;23.42;101660.28;5003174;28;20133;-75
2022/03/14 04:00:28;;;;;;;35.30;14.68;;;;;;;5.65;23.38;101660.19;5031989;28;20128;-74
2022/03/14 04:02:55;;;;;;;42.00;15.65;;;;;;;5.62;23.33;101657.72;5031088;28;20046;-73
2022/03/14 04:05:22;;;;;;;36.80;16.35;;;;;;;5.28;23.72;101659.16;5032024;28;20060;-74
2022/03/14 04:07:48;;;;;;;39.60;15.30;;;;;;;5.84;22.98;101649.13;5016556;28;20129;-75
2022/03/14 04:10:15;;;;;;;36.67;15.40;;;;;;;6.08;22.75;101649.22;5011018;28;20050;-74
2022/03/14 04:12:44;;;;;;;43.10;15.63;;;;;;;5.90;23.02;101653.16;5012235;28;20558;-73
2022/03/14 04:15:12;;;;;;;39.33;15.25;;;;;;;5.86;22.72;101651.66;5011788;28;20050;-74
2022/03/14 04:17:40;;;;;;;38.50;15.77;;;;;;;6.02;22.80;101649.66;5016707;28;20371;-74
2022/03/14 04:20:09;;;;;;;35.92;14.82;;;;;;;6.27;22.51;101650.59;5028961;28;20076;-74
2022/03/14 04:22:37;;;;;;;30.85;14.48;;;;;;;6.20;22.28;101659.00;4992672;28;20070;-75
2022/03/14 04:25:05;;;;;;;35.78;15.27;;;;;;;6.08;22.62;101667.00;5023942;28;20099;-74
2022/03/14 04:27:33;;;;;;;33.08;15.10;;;;;;;6.11;22.47;101667.63;5030341;28;20072;-74
2022/03/14 04:29:59;;;;;;;36.55;15.18;;;;;;;6.02;22.79;101665.63;5031640;28;20432;-75
2022/03/14 04:32:26;;;;;;;41.53;15.45;;;;;;;6.18;22.44;101668.03;5023050;28;20073;-75
2022/03/14 04:34:53;;;;;;;34.78;15.05;;;;;;;6.13;22.65;101663.06;5011266;28;20133;-75
2022/03/14 04:37:19;;;;;;;37.30;14.70;;;;;;;6.08;22.72;101659.00;5011877;28;20073;-75
2022/03/14 04:39:46;;;;;;;39.67;15.77;;;;;;;5.95;22.60;101664.34;5018888;28;20477;-75
2022/03/14 04:42:15;;;;;;;32.47;14.90;;;;;;;5.96;22.68;101661.56;5026018;28;20136;-75
2022/03/14 04:44:42;;;;;;;36.00;15.65;;;;;;;5.85;22.75;101664.13;5022753;28;20077;-75
2022/03/14 04:47:10;;;;;;;37.30;15.45;;;;;;;6.17;22.52;101664.53;5015628;28;20173;-75
2022/03/14 04:49:37;;;;;;;35.22;15.45;;;;;;;5.94;22.74;101665.28;5033795;28;20124;-75
2022/03/14 04:52:04;;;;;;;39.33;15.38;;;;;;;5.96;22.84;101669.56;5035399;28;20084;-75
2022/03/14 04:54:31;;;;;;;38.78;15.43;;;;;;;6.17;22.75;101675.19;5036239;28;20104;-75
2022/03/14 04:56:57;;;;;;;40.30;16.70;;;;;;;5.87;22.88;101685.31;5026654;28;20070;-75
2022/03/14 04:59:24;;;;;;;31.73;14.80;;;;;;;6.30;22.58;101683.22;5015099;28;20393;-75
2022/03/14 05:01:50;;;;;;;40.92;16.83;;;;;;;6.22;22.83;101683.72;5015068;28;20070;-75
2022/03/14 05:04:18;;;;;;;40.38;16.05;;;;;;;6.21;22.64;101687.34;5015836;28;20077;-75
2022/03/14 05:06:44;;;;;;;42.85;16.05;;;;;;;6.16;22.80;101686.81;5014362;28;20129;-75
2022/03/14 05:09:11;;;;;;;37.33;16.02;;;;;;;6.02;23.10;101684.28;5015210;28;20133;-75
2022/03/14 05:11:38;;;;;;;42.90;16.85;;;;;;;6.08;22.89;101685.63;5023968;28;20132;-75
2022/03/14 05:14:08;;;;;;;35.10;15.02;;;;;;;6.11;22.78;101696.94;5025269;28;20481;-74
2022/03/14 05:16:35;;;;;;;41.50;15.48;;;;;;;6.00;22.90;101691.50;5015265;28;20073;-73
2022/03/14 05:19:02;;;;;;;38.00;16.80;;;;;;;6.00;23.06;101694.16;5020266;28;20049;-75
2022/03/14 05:21:29;;;;;;;38.85;16.17;;;;;;;6.34;22.79;101698.03;5030690;28;20047;-75
2022/03/14 05:23:55;;;;;;;42.67;17.65;;;;;;;6.21;22.86;101700.66;5025281;28;20077;-75
2022/03/14 05:26:22;;;;;;;43.25;15.60;;;;;;;5.98;22.76;101693.44;5025480;28;20128;-74
2022/03/14 05:28:48;;;;;;;37.20;15.88;;;;;;;5.90;23.10;101693.09;5020024;28;20167;-76
2022/03/14 05:31:16;;;;;;;39.80;16.40;;;;;;;6.31;22.67;101694.72;5031650;28;20132;-76
2022/03/14 05:33:42;;;;;;;39.58;16.92;;;;;;;5.95;22.86;101691.00;5015056;28;20433;-75
2022/03/14 05:36:09;;;;;;;38.70;16.90;;;;;;;5.77;23.40;101693.97;5021429;28;20045;-76
2022/03/14 05:38:36;;;;;;;38.20;17.00;;;;;;;5.66;23.61;101692.97;5034112;28;20077;-76
2022/03/14 05:41:02;;;;;;;41.28;16.25;;;;;;;5.44;23.82;101689.09;5035794;28;20406;-75
2022/03/14 05:43:36;;;;;;;38.70;16.42;;;;;;;5.57;23.71;101690.97;5034548;28;20117;-76
2022/03/14 05:46:05;;;;;;;41.35;16.67;;;;;;;6.08;23.06;101690.97;5027494;28;20124;-76
2022/03/14 05:48:32;;;;;;;44.28;16.45;;;;;;;5.73;23.41;101691.59;5023393;28;20505;-75
2022/03/14 05:50:59;;;;;;;37.45;15.85;;;;;;;5.97;23.10;101689.06;5018789;28;20074;-75
2022/03/14 05:53:26;;;;;;;41.60;16.13;;;;;;;5.76;23.66;101696.72;5013378;28;20500;-74
2022/03/14 05:55:52;;;;;;;39.60;16.50;;;;;;;5.71;23.68;101689.06;5033551;28;20065;-74
2022/03/14 05:58:19;;;;;;;41.25;16.95;;;;;;;5.84;23.79;101706.88;5032864;28;20128;-74
2022/03/14 06:00:48;;;;;;;41.92;16.13;;;;;;;5.42;23.86;101696.34;5032961;28;20100;-75
2022/03/14 06:03:15;;;;;;;36.22;16.33;;;;;;;5.62;23.76;101705.63;5030618;28;20069;-76
2022/03/14 06:05:41;;;;;;;41.35;16.50;;;;;;;5.61;23.86;101706.59;5016988;28;20045;-76
2022/03/14 06:08:08;;;;;;;44.55;16.73;;;;;;;5.62;23.78;101710.97;5013896;28;20137;-76
2022/03/14 06:10:34;;;;;;;46.63;18.02;;;;;;;5.79;23.56;101719.63;5017812;28;20054;-76
2022/03/14 06:13:01;;;;;;;42.97;16.75;;;;;;;5.39;23.75;101712.53;5026289;28;20064;-75
2022/03/14 06:15:27;;;;;;;44.05;17.38;;;;;;;5.50;24.00;101717.97;5026000;28;20132;-76
2022/03/14 06:17:54;;;;;;;40.40;17.13;;;;;;;5.63;23.48;101715.34;5029479;28;20056;-76
2022/03/14 06:20:20;;;;;;;48.08;17.98;;;;;;;5.71;23.30;101721.00;5015763;28;20060;-75
2022/03/14 06:22:47;;;;;;;45.17;18.60;;;;;;;5.93;23.11;101724.84;5028223;28;20046;-75
2022/03/14 06:25:17;;;;;;;43.63;18.23;;;;;;;5.88;23.38;101719.84;5021748;28;20046;-75
2022/03/14 06:27:43;;;;;;;50.17;17.08;;;;;;;5.81;23.24;101720.38;5026234;28;20056;-75
2022/03/14 06:30:11;;;;;;;44.45;18.23;;;;;;;5.50;23.78;101717.13;5020901;28;20050;-74
2022/03/14 06:32:40;;;;;;;62.40;17.55;;;;;;;5.89;23.18;101713.56;5028597;28;20100;-75
2022/03/14 06:35:09;;;;;;;37.70;17.08;;;;;;;5.99;23.21;101713.78;5013628;28;20124;-75
2022/03/14 06:37:37;;;;;;;40.38;16.55;;;;;;;6.00;23.06;101718.16;5023502;28;20506;-75
2022/03/14 06:40:04;;;;;;;46.63;16.92;;;;;;;6.04;23.18;101716.97;5035217;28;20410;-75
2022/03/14 06:42:30;;;;;;;38.88;17.48;;;;;;;5.99;23.22;101721.78;5031429;28;20056;-75
2022/03/14 06:45:01;;;;;;;43.35;17.10;;;;;;;6.12;22.80;101719.13;5035908;28;20129;-75
2022/03/14 06:47:28;;;;;;;29.70;13.00;;;;;;;5.46;23.85;101729.78;5029020;28;20095;-76
2022/03/14 06:49:55;;;;;;;66.45;18.23;;;;;;;6.34;22.81;101731.81;5028066;28;20558;-76
2022/03/14 06:52:22;;;;;;;43.22;16.77;;;;;;;6.21;22.95;101742.44;5040780;28;20072;-77
2022/03/14 06:54:49;;;;;;;43.53;17.20;;;;;;;6.50;22.49;101743.13;5032007;28;20083;-77
2022/03/14 06:57:15;;;;;;;46.33;17.15;;;;;;;6.08;22.99;101747.78;5039192;28;20053;-77
2022/03/14 06:59:42;;;;;;;39.90;16.25;;;;;;;7.08;21.73;101749.56;5015247;28;20070;-77
2022/03/14 07:02:10;;;;;;;37.35;15.95;;;;;;;7.75;21.09;101748.19;5031184;28;20401;-77
2022/03/14 07:04:37;;;;;;;45.53;16.17;;;;;;;7.71;21.40;101750.25;5039381;28;20045;-76
2022/03/14 07:07:04;;;;;;;38.65;17.98;;;;;;;8.07;20.76;101741.25;5038867;28;20053;-77
2022/03/14 07:09:31;;;;;;;41.58;17.63;;;;;;;8.12;20.54;101744.41;5036029;28;20045;-77
2022/03/14 07:11:58;;;;;;;35.65;15.60;;;;;;;8.83;19.94;101749.53;5035241;28;20049;-75
2022/03/14 07:14:25;;;;;;;41.28;17.08;;;;;;;8.15;20.42;101745.97;5030845;28;20042;-76
2022/03/14 07:16:51;;;;;;;38.97;17.23;;;;;;;8.50;20.04;101761.06;5033491;28;20124;-76
2022/03/14 07:19:18;;;;;;;41.00;16.40;;;;;;;8.95;19.53;101756.53;5030372;28;20498;-75
2022/03/14 07:21:44;;;;;;;42.67;16.92;;;;;;;9.23;19.60;101748.94;5019932;28;20081;-78
2022/03/14 07:24:11;;;;;;;36.63;15.85;;;;;;;9.52;19.22;101746.56;5019238;28;20425;-76
2022/03/14 07:26:38;;;;;;;41.17;16.35;;;;;;;9.18;19.13;101754.69;5019055;28;20037;-76
2022/03/14 07:29:04;;;;;;;40.15;17.77;;;;;;;9.39;19.21;101754.75;5015287;28;20133;-76
2022/03/14 07:31:31;;;;;;;38.85;17.55;;;;;;;9.95;18.53;101750.97;5011609;28;20557;-76
2022/03/14 07:33:57;;;;;;;39.45;16.10;;;;;;;8.79;19.82;101758.78;5011661;28;20056;-77
2022/03/14 07:36:24;;;;;;;35.83;15.82;;;;;;;10.19;18.41;101764.94;5012131;28;20053;-77
2022/03/14 07:38:50;;;;;;;52.13;16.70;;;;;;;9.76;18.79;101762.41;5011174;28;20120;-77
2022/03/14 07:41:17;;;;;;;36.50;17.33;;;;;;;10.61;17.72;101764.06;5012175;28;20479;-77
2022/03/14 07:43:43;;;;;;;37.97;16.90;;;;;;;10.79;17.94;101772.31;5016450;28;20558;-77
2022/03/14 07:46:10;;;;;;;36.78;16.73;;;;;;;11.21;17.46;101765.81;5011243;28;20046;-77
2022/03/14 07:48:37;;;;;;;33.42;16.05;;;;;;;11.87;17.20;101757.06;5012827;28;20052;-75
2022/03/14 07:51:03;;;;;;;34.03;16.65;;;;;;;10.38;18.25;101766.91;5001633;28;20128;-76
2022/03/14 07:53:31;;;;;;;36.03;17.13;;;;;;;10.21;18.71;101765.69;5013848;28;20121;-78
2022/03/14 07:55:57;;;;;;;30.75;15.95;;;;;;;10.49;18.29;101761.44;5016620;28;20168;-77
2022/03/14 07:58:24;;;;;;;45.70;16.23;;;;;;;11.77;17.08;101775.06;5011621;28;20120;-77
2022/03/14 08:00:55;;;;;;;32.60;15.93;;;;;;;11.46;17.17;101767.09;5016665;28;20501;-75
2022/03/14 08:03:23;;;;;;;35.15;15.60;;;;;;;11.25;17.26;101766.38;5031833;28;20067;-76
2022/03/14 08:05:55;;;;;;;34.53;15.52;;;;;;;11.20;17.41;101758.72;5026709;28;20124;-76
2022/03/14 08:08:23;;;;;;;30.55;15.43;;;;;;;11.37;17.52;101762.56;5024734;28;20398;-76
2022/03/14 08:10:50;;;;;;;33.55;15.32;;;;;;;11.42;17.06;101762.16;5030711;28;20072;-76
2022/03/14 08:13:18;;;;;;;32.22;14.55;;;;;;;11.87;17.02;101756.22;5033574;28;20576;-76
2022/03/14 08:15:44;;;;;;;30.88;15.20;;;;;;;12.58;16.06;101761.97;5017414;28;20068;-76
2022/03/14 08:18:10;;;;;;;28.17;13.43;;;;;;;12.27;16.19;101761.38;5029289;28;20128;-77
2022/03/14 08:20:37;;;;;;;24.77;12.85;;;;;;;11.65;16.22;101770.75;5029277;28;20091;-77
2022/03/14 08:23:05;;;;;;;28.23;14.15;;;;;;;10.99;17.09;101772.22;5019548;28;20085;-77
2022/03/14 08:25:34;;;;;;;28.98;13.25;;;;;;;10.46;17.36;101769.75;5016868;28;20045;-77
2022/03/14 08:28:01;;;;;;;28.95;13.75;;;;;;;10.39;17.66;101771.28;5035411;28;20049;-77
2022/03/14 08:30:27;;;;;;;26.67;13.05;;;;;;;10.66;17.42;101764.50;5033201;28;20409;-77
2022/03/14 08:32:56;;;;;;;31.38;13.52;;;;;;;11.47;16.93;101759.88;5035016;28;20046;-76
2022/03/14 08:35:23;;;;;;;27.45;12.43;;;;;;;10.61;17.14;101769.41;5022732;28;20133;-76
2022/03/14 08:37:52;;;;;;;27.42;13.63;;;;;;;9.72;18.34;101752.94;5015780;28;20073;-77
2022/03/14 08:40:22;;;;;;;26.15;11.80;;;;;;;11.28;16.89;101754.50;5016767;28;20057;-78
2022/03/14 08:42:51;;;;;;;27.27;12.23;;;;;;;11.47;16.46;101759.88;5016049;28;20046;-77
2022/03/14 08:45:18;;;;;;;25.45;12.23;;;;;;;9.45;18.01;101773.00;5018626;28;20061;-78
2022/03/14 08:47:45;;;;;;;26.98;11.43;;;;;;;11.79;16.55;101759.59;4999414;28;20486;-78
2022/03/14 08:50:14;;;;;;;22.98;11.30;;;;;;;11.58;16.25;101761.56;5008179;28;20046;-78
2022/03/14 08:52:41;;;;;;;24.42;11.88;;;;;;;11.69;16.42;101767.72;5018692;28;20462;-78
2022/03/14 08:55:08;;;;;;;23.63;11.48;;;;;;;12.53;15.57;101766.13;5016337;28;20078;-77
2022/03/14 08:57:38;;;;;;;38.15;13.18;;;;;;;11.85;16.52;101761.72;5014661;28;20045;-77
2022/03/14 09:00:07;;;;;;;26.90;12.00;;;;;;;12.03;15.99;101772.59;4997752;28;20132;-78
2022/03/14 09:02:34;;;;;;;21.75;11.23;;;;;;;12.25;15.85;101773.28;5019031;28;20061;-78
2022/03/14 09:05:00;;;;;;;21.45;11.00;;;;;;;12.22;15.73;101777.13;5016882;28;20057;-78
2022/03/14 09:07:31;;;;;;;28.90;11.95;;;;;;;12.21;16.24;101770.03;5018967;28;20136;-78
2022/03/14 09:10:03;;;;;;;20.58;11.00;;;;;;;11.85;15.94;101766.25;5019196;28;20055;-78
2022/03/14 09:12:31;;;;;;;22.98;11.95;;;;;;;13.63;14.83;101763.34;5018307;28;20057;-78
2022/03/14 09:14:58;;;;;;;20.15;10.57;;;;;;;12.25;15.27;101751.75;4997703;28;20084;-77
2022/03/14 09:17:27;;;;;;;21.77;10.02;;;;;;;12.55;15.50;101761.41;5014349;28;20046;-77
2022/03/14 09:19:54;;;;;;;25.77;11.50;;;;;;;12.09;15.69;101763.13;5015392;28;20493;-78
2022/03/14 09:22:22;;;;;;;15.15;9.15;;;;;;;12.60;15.32;101757.28;5015695;28;20050;-77
2022/03/14 09:24:48;;;;;;;17.95;10.73;;;;;;;13.19;15.04;101748.94;5015133;28;20053;-77
2022/03/14 09:27:15;;;;;;;23.30;10.77;;;;;;;13.91;14.71;101744.34;5033032;28;20465;-78
2022/03/14 09:29:42;;;;;;;24.05;11.20;;;;;;;13.74;14.53;101748.78;5036265;28;20486;-77
2022/03/14 09:32:09;;;;;;;18.52;10.10;;;;;;;13.81;14.41;101741.78;5035000;28;20408;-77
2022/03/14 09:34:37;;;;;;;20.88;10.60;;;;;;;13.04;15.05;101744.06;5034671;28;20045;-78
2022/03/14 09:37:03;;;;;;;19.50;10.38;;;;;;;14.53;14.06;101740.56;5018836;28;20064;-77
2022/03/14 09:39:32;;;;;;;23.00;10.55;;;;;;;14.81;13.80;101748.47;5033893;28;20136;-74
2022/03/14 09:42:01;;;;;;;21.13;10.18;;;;;;;15.08;13.82;101758.16;5033713;28;20092;-73
2022/03/14 09:44:29;;;;;;;20.15;10.73;;;;;;;15.56;13.40;101748.44;5033163;28;20069;-74
2022/03/14 09:47:00;;;;;;;17.63;9.70;;;;;;;14.84;13.85;101749.97;5033547;28;20069;-74
2022/03/14 09:49:28;;;;;;;20.40;10.48;;;;;;;15.62;13.14;101741.53;5034556;28;20076;-74
2022/03/14 09:51:55;;;;;;;19.05;10.82;;;;;;;15.92;12.85;101742.75;5014690;28;20180;-74
2022/03/14 09:54:22;;;;;;;20.90;9.65;;;;;;;16.16;12.98;101742.69;5033700;28;20065;-74
2022/03/14 09:56:57;;;;;;;18.55;10.35;;;;;;;14.58;13.88;101758.97;5033429;28;20564;-74
2022/03/14 09:59:24;;;;;;;17.35;10.80;;;;;;;15.57;13.27;101750.16;5033098;28;20050;-74
2022/03/14 10:01:52;;;;;;;16.15;9.93;;;;;;;13.81;14.85;101750.72;5032342;28;20088;-75
2022/03/14 10:04:19;;;;;;;21.02;10.60;;;;;;;12.23;16.02;101762.66;5033694;28;20042;-74
2022/03/14 10:06:45;;;;;;;17.98;10.13;;;;;;;14.26;14.42;101763.19;5032346;28;20053;-75
2022/03/14 10:09:11;;;;;;;22.65;11.02;;;;;;;14.65;14.22;101754.59;5032533;28;20113;-74
2022/03/14 10:11:39;;;;;;;19.98;10.30;;;;;;;14.40;14.68;101750.94;5034222;28;20137;-74
2022/03/14 10:14:10;;;;;;;16.85;10.35;;;;;;;14.25;14.76;101757.91;5032184;28;20045;-75
2022/03/14 10:16:37;;;;;;;17.48;10.30;;;;;;;14.93;14.18;101757.09;5033310;28;20049;-74
2022/03/14 10:19:07;;;;;;;19.13;9.98;;;;;;;13.18;15.20;101755.28;5031957;28;20133;-75
2022/03/14 10:21:37;;;;;;;23.92;11.27;;;;;;;14.36;14.65;101752.28;5032441;28;20508;-74
2022/03/14 10:24:06;;;;;;;25.95;9.88;;;;;;;15.41;14.02;101745.56;5032195;28;20405;-74
2022/03/14 10:26:34;;;;;;;20.27;9.82;;;;;;;14.88;14.00;101752.22;5026955;28;20050;-76
2022/03/14 10:29:03;;;;;;;18.27;10.75;;;;;;;14.88;14.43;101754.91;5018101;28;20049;-76
2022/03/14 10:31:36;;;;;;;21.20;10.15;;;;;;;15.15;14.14;101763.75;5017678;28;20042;-76
2022/03/14 10:34:10;;;;;;;15.18;9.25;;;;;;;14.22;14.76;101763.63;5019589;28;20054;-77
2022/03/14 10:36:49;;;;;;;24.30;10.05;;;;;;;15.13;14.30;101774.75;5020218;28;20072;-76
2022/03/14 10:39:17;;;;;;;16.52;9.65;;;;;;;15.13;14.37;101772.03;5018336;28;20066;-77
2022/03/14 10:42:03;;;;;;;16.35;9.63;;;;;;;15.96;13.81;101768.44;5019345;28;20185;-76
2022/03/14 10:44:48;;;;;;;14.88;8.98;;;;;;;15.39;14.45;101768.38;5018171;28;20042;-77
2022/03/14 10:47:16;;;;;;;18.00;9.68;;;;;;;15.43;14.14;101764.31;5023602;28;20046;-77
2022/03/14 10:49:43;;;;;;;19.70;9.68;;;;;;;16.03;13.58;101766.75;5019480;28;20070;-77
2022/03/14 10:52:17;;;;;;;18.23;9.45;;;;;;;16.63;13.05;101763.56;5026232;28;20192;-77
2022/03/14 10:54:44;;;;;;;18.10;8.60;;;;;;;15.67;13.77;101772.50;5025791;28;20510;-77
2022/03/14 10:57:20;;;;;;;16.13;9.13;;;;;;;15.74;13.82;101775.34;5021312;28;20076;-76
2022/03/14 10:59:50;;;;;;;13.52;7.97;;;;;;;15.18;14.02;101777.78;5024660;28;20054;-77
2022/03/14 11:02:20;;;;;;;13.65;8.00;;;;;;;15.18;13.58;101777.78;5026807;28;20497;-77
2022/03/14 11:04:51;;;;;;;13.10;8.07;;;;;;;15.93;13.42;101771.47;5018909;28;20104;-77
2022/03/14 11:07:26;;;;;;;14.18;8.48;;;;;;;15.83;13.48;101768.94;5036795;28;20073;-76
2022/03/14 11:09:59;;;;;;;14.82;8.10;;;;;;;15.86;13.60;101770.47;5024101;28;20072;-77
2022/03/14 11:12:28;;;;;;;12.10;8.25;;;;;;;16.37;13.11;101768.38;4995738;28;20073;-77
2022/03/14 11:15:03;;;;;;;14.77;8.65;;;;;;;16.04;13.56;101768.41;5021496;28;20508;-77
2022/03/14 11:17:32;;;;;;;15.02;8.80;;;;;;;16.09;13.46;101776.88;5006259;28;20481;-77